Main page
METAR-TAF:

METAR-TAF

Airports :

Santa Maria Airport

Santa Maria, Rio Grande do Sul, Brazil

latitude: 29-43S, longitude: 053-42W, elevation: 85 m

Current weather observation

The report was made 33 minutes ago, at 11:00 UTC
Wind 1 kt from variable directions
Temperature 7°C
Humidity 100%
Pressure 1021 hPa
Visibility 10 km or more
no clouds below 1500 m and no cumulonimbus

METAR: SBSM 121100Z VRB01KT CAVOK 07/07 Q1021

Time: 08:33 (11:33 UTC)

Forecast

The report was made 8 hours and 33 minutes ago, at 03:00 UTC
Forecast valid from 12 at 06 UTC to 12 at 18 UTC
Wind kt from the North
Visibility 10 km or more
no clouds below 1500 m and no cumulonimbus
Becoming
from 12 at 13 UTC to 12 at 15 UTC
Wind 7 kt from the West

TAF: SBSM 120300Z 1206/1218 00000KT CAVOK TN07/1207Z TX19/1216Z BECMG 1213/1215 27007KT RMK PDY

Weather observations and forecasts of more than 4000 airports (METAR and TAF reports).

The available stations are represented by yellow and red dots on the map.

Hover mouse over dot to see the name of the station.

Then click to see weather observations and forecasts.

To change the map : click on the green buttons with a black cross to zoom in, on the green button with a dash to zoom out, or on the green arrows for adjacent maps.


METAR-TAF: